createdAt,value
2022-12-19T00:00:49.505Z,18.53
2022-12-19T00:03:54.545Z,18.47
2022-12-19T00:06:59.667Z,18.50
2022-12-19T00:10:01.133Z,18.07
2022-12-19T00:13:02.516Z,18.83
2022-12-19T00:16:06.524Z,18.00
2022-12-19T00:19:10.045Z,19.00
2022-12-19T00:22:11.496Z,19.53
2022-12-19T00:25:12.907Z,17.90
2022-12-19T00:28:15.827Z,19.23
2022-12-19T00:31:21.401Z,18.57
2022-12-19T00:34:22.910Z,18.93
2022-12-19T00:37:24.348Z,17.83
2022-12-19T00:40:25.772Z,17.70
2022-12-19T00:43:27.197Z,17.47
2022-12-19T00:46:31.555Z,18.77
2022-12-19T00:49:32.943Z,18.40
2022-12-19T00:52:35.259Z,19.00
2022-12-19T00:55:38.401Z,18.60
2022-12-19T00:58:46.437Z,18.53
2022-12-19T01:01:48.525Z,17.87
2022-12-19T01:04:50.349Z,18.33
2022-12-19T01:07:51.743Z,19.27
2022-12-19T01:10:53.974Z,17.47
2022-12-19T01:13:55.364Z,18.77
2022-12-19T01:16:56.836Z,18.97
2022-12-19T01:19:59.845Z,18.87
2022-12-19T01:23:01.316Z,19.60
2022-12-19T01:26:02.806Z,19.50
2022-12-19T01:29:05.185Z,18.53
2022-12-19T01:32:06.627Z,19.10
2022-12-19T01:35:16.641Z,19.40
2022-12-19T01:38:23.441Z,19.60
2022-12-19T01:41:25.210Z,17.87
2022-12-19T01:44:27.683Z,18.27
2022-12-19T01:47:29.701Z,18.57
2022-12-19T01:51:00.850Z,17.70
2022-12-19T01:54:07.533Z,18.50
2022-12-19T01:57:13.871Z,18.00
2022-12-19T02:00:15.762Z,17.00
2022-12-19T02:03:33.277Z,18.33
2022-12-19T02:06:35.335Z,17.60
2022-12-19T02:09:37.256Z,18.33
2022-12-19T02:12:43.110Z,17.37
2022-12-19T02:16:11.825Z,18.17
2022-12-19T02:19:34.268Z,17.97
2022-12-19T02:23:03.659Z,18.23
2022-12-19T02:26:39.447Z,17.00
2022-12-19T02:30:18.916Z,17.60
2022-12-19T02:33:43.405Z,16.87
2022-12-19T02:36:52.696Z,17.80
2022-12-19T02:40:05.335Z,18.17
2022-12-19T02:43:09.950Z,17.93
2022-12-19T02:46:12.479Z,17.97
2022-12-19T02:49:17.831Z,18.50
2022-12-19T02:52:26.213Z,18.67
2022-12-19T02:55:28.755Z,18.27
2022-12-19T02:58:52.612Z,17.67
2022-12-19T03:02:04.039Z,16.77
2022-12-19T03:05:27.086Z,17.27
2022-12-19T03:09:00.796Z,18.57
2022-12-19T03:12:12.789Z,18.57
2022-12-19T03:15:18.345Z,17.73
2022-12-19T03:18:20.448Z,17.43
2022-12-19T03:21:37.599Z,18.00
2022-12-19T03:24:39.037Z,18.30
2022-12-19T03:27:41.085Z,18.10
2022-12-19T03:30:45.466Z,17.97
2022-12-19T03:33:52.142Z,16.93
2022-12-19T03:36:59.014Z,17.83
2022-12-19T03:40:06.015Z,17.53
2022-12-19T03:43:11.117Z,17.37
2022-12-19T03:46:22.201Z,18.27
2022-12-19T03:49:23.893Z,17.80
2022-12-19T03:52:34.471Z,18.23
2022-12-19T03:55:47.476Z,17.53
2022-12-19T03:58:54.913Z,17.43
2022-12-19T04:01:57.460Z,19.03
2022-12-19T04:05:06.120Z,17.40
2022-12-19T04:08:11.561Z,18.13
2022-12-19T04:11:20.193Z,18.27
2022-12-19T04:14:30.687Z,19.23
2022-12-19T04:17:42.803Z,17.77
2022-12-19T04:20:58.526Z,17.37
2022-12-19T04:24:10.699Z,17.30
2022-12-19T04:27:14.069Z,18.20
2022-12-19T04:30:18.143Z,18.23
2022-12-19T04:33:20.102Z,17.97
2022-12-19T04:36:21.681Z,18.20
2022-12-19T04:39:23.269Z,18.50
2022-12-19T04:42:26.319Z,18.13
2022-12-19T04:45:27.713Z,17.30
2022-12-19T04:48:29.167Z,17.60
2022-12-19T04:51:30.713Z,18.90
2022-12-19T04:54:32.931Z,19.20
2022-12-19T04:57:34.316Z,18.93
2022-12-19T05:00:35.802Z,18.87
2022-12-19T05:03:37.288Z,18.57
2022-12-19T05:06:38.740Z,17.70
2022-12-19T05:09:40.217Z,17.37
2022-12-19T05:12:41.609Z,18.70
2022-12-19T05:15:43.006Z,17.90
2022-12-19T05:18:46.470Z,19.30
2022-12-19T05:21:47.887Z,19.30
2022-12-19T05:24:49.285Z,19.30
2022-12-19T05:27:50.679Z,18.77
2022-12-19T05:30:52.671Z,18.80
2022-12-19T05:33:54.218Z,19.00
2022-12-19T05:36:55.662Z,19.77
2022-12-19T05:39:57.112Z,19.17
2022-12-19T05:42:58.735Z,18.87
2022-12-19T05:46:00.151Z,18.07
2022-12-19T05:49:01.661Z,18.47
2022-12-19T05:52:03.118Z,18.30
2022-12-19T05:55:06.067Z,19.50
2022-12-19T05:58:07.456Z,19.90
2022-12-19T06:01:12.209Z,19.73
2022-12-19T06:04:13.696Z,18.67
2022-12-19T06:07:20.626Z,18.13
2022-12-19T06:10:22.477Z,18.97
2022-12-19T06:13:25.204Z,19.27
2022-12-19T06:16:26.754Z,19.20
2022-12-19T06:19:28.245Z,18.37
2022-12-19T06:22:29.700Z,18.50
2022-12-19T06:25:31.097Z,19.13
2022-12-19T06:28:34.020Z,18.33
2022-12-19T06:31:35.562Z,18.90
2022-12-19T06:35:03.306Z,17.90
2022-12-19T06:38:01.020Z,17.77
2022-12-19T06:41:21.890Z,19.40
2022-12-19T06:44:23.406Z,18.77
2022-12-19T06:47:25.362Z,19.00
2022-12-19T06:50:26.747Z,20.70
2022-12-19T06:53:28.385Z,19.63
2022-12-19T06:56:36.003Z,19.80
2022-12-19T06:59:37.683Z,19.90
2022-12-19T07:02:42.710Z,19.37
2022-12-19T07:05:44.190Z,18.57
2022-12-19T07:08:45.583Z,20.33
2022-12-19T07:11:47.013Z,19.27
2022-12-19T07:14:53.121Z,19.63
2022-12-19T07:17:56.077Z,18.60
2022-12-19T07:20:57.688Z,19.53
2022-12-19T07:24:00.472Z,18.50
2022-12-19T07:27:02.529Z,18.73
2022-12-19T07:30:06.016Z,19.17
2022-12-19T07:33:10.965Z,18.30
2022-12-19T07:36:12.948Z,18.53
2022-12-19T07:39:14.404Z,19.13
2022-12-19T07:42:15.834Z,19.23
2022-12-19T07:45:17.410Z,18.43
2022-12-19T07:48:18.873Z,20.17
2022-12-19T07:51:20.301Z,19.13
2022-12-19T07:54:21.906Z,19.50
2022-12-19T07:57:23.299Z,18.50
2022-12-19T08:00:24.837Z,19.10
2022-12-19T08:03:26.821Z,18.67
2022-12-19T08:06:28.317Z,18.23
2022-12-19T08:09:30.341Z,18.23
2022-12-19T08:12:33.754Z,19.17
2022-12-19T08:15:35.618Z,19.70
2022-12-19T08:18:37.618Z,19.43
2022-12-19T08:21:39.014Z,19.47
2022-12-19T08:24:40.406Z,21.13
2022-12-19T08:27:42.854Z,19.20
2022-12-19T08:30:44.279Z,20.10
2022-12-19T08:33:47.317Z,19.07
2022-12-19T08:36:48.708Z,20.43
2022-12-19T08:39:50.121Z,22.70
2022-12-19T08:42:51.540Z,19.73
2022-12-19T08:45:53.676Z,19.80
2022-12-19T08:48:55.320Z,19.27
2022-12-19T08:51:56.841Z,18.33
2022-12-19T08:54:58.348Z,18.93
2022-12-19T08:57:59.738Z,19.07
2022-12-19T09:01:06.255Z,18.80
2022-12-19T09:05:17.252Z,18.40
2022-12-19T09:07:30.725Z,18.40
2022-12-19T09:10:32.249Z,17.37
2022-12-19T09:13:34.526Z,21.27
2022-12-19T09:16:35.990Z,18.73
2022-12-19T09:19:37.601Z,23.37
2022-12-19T09:22:39.978Z,19.07
2022-12-19T09:25:41.389Z,18.57
2022-12-19T09:28:43.135Z,18.20
2022-12-19T09:31:44.539Z,18.93
2022-12-19T09:34:46.023Z,18.90
2022-12-19T09:37:47.415Z,18.30
2022-12-19T09:40:58.013Z,17.80
2022-12-19T09:44:33.287Z,18.93
2022-12-19T09:47:38.398Z,18.10
2022-12-19T09:51:09.961Z,18.43
2022-12-19T09:54:24.407Z,18.53
2022-12-19T09:57:46.974Z,18.23
2022-12-19T10:01:00.362Z,18.67
2022-12-19T10:04:18.255Z,18.50
2022-12-19T10:07:43.956Z,18.37
2022-12-19T10:12:38.588Z,18.57
2022-12-19T10:14:17.851Z,17.73
2022-12-19T10:17:47.084Z,18.73
2022-12-19T10:21:04.238Z,17.60
2022-12-19T10:24:17.796Z,17.27
2022-12-19T10:27:37.888Z,17.83
2022-12-19T10:31:22.718Z,18.60
2022-12-19T10:34:32.582Z,17.33
2022-12-19T10:38:03.673Z,18.83
2022-12-19T10:41:16.322Z,17.33
2022-12-19T10:44:19.054Z,17.07
2022-12-19T10:47:20.617Z,16.40
2022-12-19T10:50:29.521Z,18.37
2022-12-19T10:53:32.086Z,17.83
2022-12-19T10:56:37.701Z,18.17
2022-12-19T10:59:39.571Z,17.80
2022-12-19T11:02:51.661Z,18.87
2022-12-19T11:05:57.738Z,18.33
2022-12-19T11:09:27.339Z,17.77
2022-12-19T11:16:19.013Z,19.67
2022-12-19T11:20:49.487Z,17.27
2022-12-19T11:29:26.833Z,17.83
2022-12-19T11:30:05.572Z,17.43
2022-12-19T11:30:48.667Z,17.90
2022-12-19T11:33:18.641Z,17.97
2022-12-19T11:36:36.179Z,17.73
2022-12-19T11:40:04.143Z,18.20
2022-12-19T11:43:43.918Z,16.97
2022-12-19T11:46:59.049Z,17.27
2022-12-19T11:50:11.178Z,18.07
2022-12-19T11:53:26.497Z,18.87
2022-12-19T11:56:29.107Z,19.37
2022-12-19T11:59:34.501Z,17.73
2022-12-19T12:03:04.000Z,17.10
2022-12-19T12:06:13.056Z,17.87
2022-12-19T12:14:35.565Z,17.60
2022-12-19T12:22:50.852Z,17.47
2022-12-19T12:29:58.666Z,18.27
2022-12-19T12:31:21.634Z,19.90
2022-12-19T12:31:43.763Z,17.50
2022-12-19T12:31:49.680Z,16.77
2022-12-19T12:35:38.189Z,16.10
2022-12-19T12:39:04.816Z,16.57
2022-12-19T12:42:37.348Z,19.23
2022-12-19T12:45:41.349Z,23.60
2022-12-19T12:48:51.496Z,17.47
2022-12-19T12:51:53.412Z,17.50
2022-12-19T12:54:55.785Z,18.40
2022-12-19T12:57:57.875Z,17.23
2022-12-19T13:01:36.147Z,17.00
2022-12-19T13:04:59.074Z,17.67
2022-12-19T13:08:00.492Z,17.17
2022-12-19T13:11:44.800Z,16.50
2022-12-19T13:14:51.591Z,17.90
2022-12-19T13:17:52.932Z,20.70
2022-12-19T13:20:54.355Z,21.03
2022-12-19T13:24:16.002Z,18.40
2022-12-19T13:27:20.740Z,17.90
2022-12-19T13:30:22.258Z,17.40
2022-12-19T13:33:23.686Z,17.93
2022-12-19T13:39:49.009Z,20.87
2022-12-19T13:40:32.270Z,17.50
2022-12-19T13:43:48.044Z,18.03
2022-12-19T13:46:49.900Z,18.03
2022-12-19T13:49:52.256Z,17.17
2022-12-19T13:52:53.776Z,17.07
2022-12-19T13:56:00.256Z,17.90
2022-12-19T13:59:04.172Z,17.40
2022-12-19T14:02:14.518Z,17.77
2022-12-19T14:06:16.781Z,17.00
2022-12-19T14:11:25.725Z,16.60
2022-12-19T14:13:48.157Z,17.47
2022-12-19T14:16:17.100Z,17.47
2022-12-19T14:19:27.690Z,17.83
2022-12-19T14:22:29.135Z,17.53
2022-12-19T14:28:25.154Z,17.40
2022-12-19T14:30:19.332Z,16.57
2022-12-19T14:33:45.559Z,17.23
2022-12-19T14:36:25.579Z,17.03
2022-12-19T14:39:35.614Z,17.30
2022-12-19T14:43:57.706Z,17.47
2022-12-19T14:52:34.220Z,16.53
2022-12-19T14:54:00.768Z,17.40
2022-12-19T14:54:30.697Z,20.37
2022-12-19T14:56:58.008Z,19.10
2022-12-19T14:59:55.860Z,17.37
2022-12-19T15:03:02.186Z,18.17
2022-12-19T15:07:07.806Z,17.87
2022-12-19T15:11:06.813Z,17.60
2022-12-19T15:14:54.259Z,18.20
2022-12-19T15:17:01.062Z,16.40
2022-12-19T15:20:02.455Z,16.80
2022-12-19T15:23:04.612Z,19.13
2022-12-19T15:26:15.722Z,17.50
2022-12-19T15:29:21.852Z,17.13
2022-12-19T15:32:23.756Z,17.13
2022-12-19T15:35:25.154Z,16.90
2022-12-19T15:38:26.548Z,17.30
2022-12-19T15:41:28.046Z,16.70
2022-12-19T15:44:32.579Z,16.50
2022-12-19T15:47:36.876Z,17.73
2022-12-19T15:50:38.274Z,19.00
2022-12-19T15:53:41.480Z,17.80
2022-12-19T15:56:51.240Z,18.43
2022-12-19T15:59:53.412Z,19.43
2022-12-19T16:06:17.376Z,18.67
2022-12-19T16:09:22.098Z,18.60
2022-12-19T16:12:45.269Z,17.50
2022-12-19T16:15:47.009Z,17.83
2022-12-19T16:18:49.009Z,17.13
2022-12-19T16:21:50.611Z,17.53
2022-12-19T16:24:53.296Z,17.53
2022-12-19T16:27:56.811Z,18.40
2022-12-19T16:30:59.754Z,21.70
2022-12-19T16:34:02.306Z,22.33
2022-12-19T16:37:03.845Z,21.73
2022-12-19T16:40:06.124Z,20.63
2022-12-19T16:43:15.583Z,19.50
2022-12-19T16:46:23.461Z,18.53
2022-12-19T16:49:25.118Z,18.90
2022-12-19T16:52:26.557Z,18.13
2022-12-19T16:55:28.036Z,21.53
2022-12-19T16:58:29.849Z,21.87
2022-12-19T17:01:31.612Z,22.13
2022-12-19T17:04:33.166Z,20.93
2022-12-19T17:07:35.029Z,19.23
2022-12-19T17:10:36.495Z,18.83
2022-12-19T17:13:38.979Z,19.10
2022-12-19T17:16:40.592Z,18.83
2022-12-19T17:19:45.139Z,19.43
2022-12-19T17:22:47.496Z,19.67
2022-12-19T17:25:49.959Z,18.13
2022-12-19T17:28:51.372Z,18.43
2022-12-19T17:31:52.982Z,17.63
2022-12-19T17:34:54.534Z,17.60
2022-12-19T17:37:57.251Z,18.47
2022-12-19T17:40:59.242Z,18.00
2022-12-19T17:44:00.622Z,19.30
2022-12-19T17:47:02.095Z,17.93
2022-12-19T17:50:03.998Z,18.33
2022-12-19T17:53:09.788Z,17.40
2022-12-19T17:56:16.415Z,19.17
2022-12-19T17:59:18.341Z,17.53
2022-12-19T18:02:23.292Z,18.07
2022-12-19T18:05:29.184Z,18.93
2022-12-19T18:08:32.614Z,19.13
2022-12-19T18:11:41.439Z,20.50
2022-12-19T18:14:43.591Z,17.53
2022-12-19T18:17:47.832Z,19.10
2022-12-19T18:20:49.288Z,19.23
2022-12-19T18:23:50.990Z,17.73
2022-12-19T18:26:52.450Z,20.33
2022-12-19T18:29:53.857Z,18.60
2022-12-19T18:32:58.559Z,16.47
2022-12-19T18:36:00.154Z,18.43
2022-12-19T18:39:01.569Z,17.70
2022-12-19T18:42:18.498Z,18.00
2022-12-19T18:45:23.033Z,17.17
2022-12-19T18:48:26.933Z,17.80
2022-12-19T18:51:28.322Z,17.40
2022-12-19T18:54:29.969Z,17.30
2022-12-19T18:57:31.498Z,17.20
2022-12-19T19:00:33.519Z,17.60
2022-12-19T19:03:38.496Z,17.07
2022-12-19T19:06:46.583Z,16.27
2022-12-19T19:09:52.064Z,16.77
2022-12-19T19:13:11.045Z,17.07
2022-12-19T19:16:18.705Z,15.33
2022-12-19T19:19:20.200Z,16.80
2022-12-19T19:22:21.649Z,17.00
2022-12-19T19:25:23.375Z,17.43
2022-12-19T19:28:24.851Z,17.03
2022-12-19T19:31:29.329Z,17.70
2022-12-19T19:34:35.072Z,17.53
2022-12-19T19:37:37.628Z,16.37
2022-12-19T19:40:39.241Z,16.53
2022-12-19T19:43:41.210Z,16.20
2022-12-19T19:46:42.760Z,16.13
2022-12-19T19:49:44.648Z,17.07
2022-12-19T19:52:46.307Z,17.10
2022-12-19T19:55:57.395Z,20.40
2022-12-19T19:59:00.542Z,20.03
2022-12-19T20:02:02.123Z,20.67
2022-12-19T20:05:03.955Z,19.57
2022-12-19T20:08:05.792Z,17.33
2022-12-19T20:11:08.775Z,18.80
2022-12-19T20:14:10.453Z,17.97
2022-12-19T20:17:11.974Z,17.70
2022-12-19T20:20:13.636Z,18.33
2022-12-19T20:23:15.107Z,18.27
2022-12-19T20:26:17.339Z,17.40
2022-12-19T20:29:18.849Z,15.97
2022-12-19T20:32:20.257Z,17.37
2022-12-19T20:35:21.711Z,17.50
2022-12-19T20:38:23.652Z,17.97
2022-12-19T20:41:25.105Z,18.10
2022-12-19T20:44:26.636Z,17.23
2022-12-19T20:47:28.082Z,20.73
2022-12-19T20:50:29.519Z,19.63
2022-12-19T20:53:32.123Z,18.20
2022-12-19T20:56:33.966Z,17.73
2022-12-19T20:59:35.411Z,18.30
2022-12-19T21:03:16.807Z,17.43
2022-12-19T21:05:58.504Z,18.73
2022-12-19T21:08:59.976Z,17.20
2022-12-19T21:12:01.473Z,16.57
2022-12-19T21:15:03.563Z,16.90
2022-12-19T21:18:05.035Z,18.30
2022-12-19T21:21:08.679Z,18.37
2022-12-19T21:24:10.177Z,17.90
2022-12-19T21:27:11.603Z,16.90
2022-12-19T21:30:13.271Z,16.37
2022-12-19T21:33:14.769Z,16.80
2022-12-19T21:36:21.371Z,16.13
2022-12-19T21:39:25.336Z,16.40
2022-12-19T21:42:26.807Z,15.60
2022-12-19T21:45:28.207Z,16.90
2022-12-19T21:48:29.677Z,16.57
2022-12-19T21:51:32.352Z,15.53
2022-12-19T21:54:33.824Z,17.73
2022-12-19T21:57:42.049Z,17.73
2022-12-19T22:00:43.518Z,15.33
2022-12-19T22:03:45.192Z,15.77
2022-12-19T22:06:47.770Z,15.97
2022-12-19T22:09:49.168Z,15.57
2022-12-19T22:12:50.634Z,16.57
2022-12-19T22:15:52.190Z,15.93
2022-12-19T22:18:54.862Z,15.13
2022-12-19T22:21:56.342Z,15.63
2022-12-19T22:24:57.752Z,15.77
2022-12-19T22:27:59.192Z,15.70
2022-12-19T22:31:01.027Z,15.03
2022-12-19T22:34:08.718Z,16.87
2022-12-19T22:37:10.411Z,14.37
2022-12-19T22:40:13.224Z,14.67
2022-12-19T22:43:14.707Z,15.83
2022-12-19T22:46:19.413Z,14.67
2022-12-19T22:49:20.993Z,15.00
2022-12-19T22:52:23.729Z,15.00
2022-12-19T22:55:25.160Z,15.23
2022-12-19T22:58:28.796Z,14.03
2022-12-19T23:01:34.311Z,15.07
2022-12-19T23:04:36.067Z,14.47
2022-12-19T23:07:37.493Z,14.70
2022-12-19T23:10:38.904Z,14.33
2022-12-19T23:13:41.574Z,14.13
2022-12-19T23:16:43.990Z,12.90
2022-12-19T23:19:45.469Z,13.40
2022-12-19T23:22:46.896Z,13.97
2022-12-19T23:25:49.748Z,14.53
2022-12-19T23:28:57.735Z,14.37
2022-12-19T23:31:59.245Z,14.33
2022-12-19T23:35:00.699Z,14.07
2022-12-19T23:38:02.086Z,13.77
2022-12-19T23:41:06.257Z,14.37
2022-12-19T23:44:08.807Z,13.93
2022-12-19T23:47:10.373Z,13.20
2022-12-19T23:50:12.140Z,13.33
2022-12-19T23:53:13.550Z,13.83
2022-12-19T23:56:20.541Z,14.10
2022-12-19T23:59:22.589Z,13.70
